sensor_id;sensor_type;location;lat;lon;timestamp;P1;durP1;ratioP1;P2;durP2;ratioP2
48122;SDS011;33907;47.426;18.906;2024-03-08T00:00:15;23.77;;;18.33;;
48122;SDS011;33907;47.426;18.906;2024-03-08T00:02:48;22.33;;;17.20;;
48122;SDS011;33907;47.426;18.906;2024-03-08T00:05:17;23.92;;;19.12;;
48122;SDS011;33907;47.426;18.906;2024-03-08T00:07:45;24.83;;;19.05;;
48122;SDS011;33907;47.426;18.906;2024-03-08T00:10:13;23.65;;;18.62;;
48122;SDS011;33907;47.426;18.906;2024-03-08T00:12:44;23.38;;;18.17;;
48122;SDS011;33907;47.426;18.906;2024-03-08T00:15:16;24.02;;;17.80;;
48122;SDS011;33907;47.426;18.906;2024-03-08T00:17:46;25.50;;;19.75;;
48122;SDS011;33907;47.426;18.906;2024-03-08T00:20:15;23.87;;;19.30;;
48122;SDS011;33907;47.426;18.906;2024-03-08T00:22:46;30.10;;;22.83;;
48122;SDS011;33907;47.426;18.906;2024-03-08T00:25:13;28.08;;;22.83;;
48122;SDS011;33907;47.426;18.906;2024-03-08T00:27:42;30.60;;;23.48;;
48122;SDS011;33907;47.426;18.906;2024-03-08T00:30:10;36.00;;;27.08;;
48122;SDS011;33907;47.426;18.906;2024-03-08T00:32:40;35.15;;;26.95;;
48122;SDS011;33907;47.426;18.906;2024-03-08T00:35:08;33.13;;;25.77;;
48122;SDS011;33907;47.426;18.906;2024-03-08T00:37:36;37.40;;;27.60;;
48122;SDS011;33907;47.426;18.906;2024-03-08T00:40:03;36.67;;;28.05;;
48122;SDS011;33907;47.426;18.906;2024-03-08T00:42:36;34.58;;;27.02;;
48122;SDS011;33907;47.426;18.906;2024-03-08T00:45:05;36.30;;;27.42;;
48122;SDS011;33907;47.426;18.906;2024-03-08T00:47:33;35.67;;;26.80;;
48122;SDS011;33907;47.426;18.906;2024-03-08T00:50:01;35.47;;;26.85;;
48122;SDS011;33907;47.426;18.906;2024-03-08T00:52:31;37.10;;;29.10;;
48122;SDS011;33907;47.426;18.906;2024-03-08T00:54:58;37.03;;;27.75;;
48122;SDS011;33907;47.426;18.906;2024-03-08T00:57:26;36.95;;;28.50;;
48122;SDS011;33907;47.426;18.906;2024-03-08T00:59:55;38.83;;;29.48;;
48122;SDS011;33907;47.426;18.906;2024-03-08T01:02:23;39.47;;;29.65;;
48122;SDS011;33907;47.426;18.906;2024-03-08T01:04:51;37.80;;;29.63;;
48122;SDS011;33907;47.426;18.906;2024-03-08T01:07:18;39.45;;;30.20;;
48122;SDS011;33907;47.426;18.906;2024-03-08T01:09:45;41.20;;;31.12;;
48122;SDS011;33907;47.426;18.906;2024-03-08T01:12:13;41.97;;;31.42;;
48122;SDS011;33907;47.426;18.906;2024-03-08T01:14:41;41.92;;;32.30;;
48122;SDS011;33907;47.426;18.906;2024-03-08T01:17:09;42.08;;;31.75;;
48122;SDS011;33907;47.426;18.906;2024-03-08T01:19:37;42.65;;;32.45;;
48122;SDS011;33907;47.426;18.906;2024-03-08T01:22:05;40.83;;;30.58;;
48122;SDS011;33907;47.426;18.906;2024-03-08T01:24:33;44.65;;;32.15;;
48122;SDS011;33907;47.426;18.906;2024-03-08T01:27:02;40.58;;;31.80;;
48122;SDS011;33907;47.426;18.906;2024-03-08T01:29:30;43.13;;;31.95;;
48122;SDS011;33907;47.426;18.906;2024-03-08T01:31:57;45.65;;;33.45;;
48122;SDS011;33907;47.426;18.906;2024-03-08T01:34:27;44.03;;;32.90;;
48122;SDS011;33907;47.426;18.906;2024-03-08T01:36:56;45.38;;;32.72;;
48122;SDS011;33907;47.426;18.906;2024-03-08T01:39:24;42.72;;;33.20;;
48122;SDS011;33907;47.426;18.906;2024-03-08T01:41:52;47.25;;;34.22;;
48122;SDS011;33907;47.426;18.906;2024-03-08T01:44:21;50.28;;;33.75;;
48122;SDS011;33907;47.426;18.906;2024-03-08T01:46:49;44.92;;;34.75;;
48122;SDS011;33907;47.426;18.906;2024-03-08T01:49:20;52.10;;;36.55;;
48122;SDS011;33907;47.426;18.906;2024-03-08T01:51:49;47.25;;;35.65;;
48122;SDS011;33907;47.426;18.906;2024-03-08T01:54:18;53.42;;;37.97;;
48122;SDS011;33907;47.426;18.906;2024-03-08T01:56:47;55.10;;;38.05;;
48122;SDS011;33907;47.426;18.906;2024-03-08T01:59:15;55.22;;;38.25;;
48122;SDS011;33907;47.426;18.906;2024-03-08T02:01:43;54.53;;;39.05;;
48122;SDS011;33907;47.426;18.906;2024-03-08T02:04:11;53.45;;;39.40;;
48122;SDS011;33907;47.426;18.906;2024-03-08T02:06:38;51.30;;;37.88;;
48122;SDS011;33907;47.426;18.906;2024-03-08T02:09:06;56.60;;;40.38;;
48122;SDS011;33907;47.426;18.906;2024-03-08T02:11:36;53.42;;;38.15;;
48122;SDS011;33907;47.426;18.906;2024-03-08T02:14:04;58.22;;;42.00;;
48122;SDS011;33907;47.426;18.906;2024-03-08T02:16:34;55.25;;;39.65;;
48122;SDS011;33907;47.426;18.906;2024-03-08T02:19:01;52.72;;;38.20;;
48122;SDS011;33907;47.426;18.906;2024-03-08T02:21:29;53.72;;;37.75;;
48122;SDS011;33907;47.426;18.906;2024-03-08T02:23:57;56.05;;;40.10;;
48122;SDS011;33907;47.426;18.906;2024-03-08T02:26:24;56.92;;;39.05;;
48122;SDS011;33907;47.426;18.906;2024-03-08T02:28:52;52.47;;;37.38;;
48122;SDS011;33907;47.426;18.906;2024-03-08T02:31:20;52.15;;;38.28;;
48122;SDS011;33907;47.426;18.906;2024-03-08T02:33:48;58.63;;;41.65;;
48122;SDS011;33907;47.426;18.906;2024-03-08T02:36:15;56.78;;;41.97;;
48122;SDS011;33907;47.426;18.906;2024-03-08T02:38:43;59.97;;;41.67;;
48122;SDS011;33907;47.426;18.906;2024-03-08T02:41:11;57.00;;;41.22;;
48122;SDS011;33907;47.426;18.906;2024-03-08T02:43:39;60.25;;;42.80;;
48122;SDS011;33907;47.426;18.906;2024-03-08T02:46:06;59.25;;;42.40;;
48122;SDS011;33907;47.426;18.906;2024-03-08T02:48:34;62.78;;;41.67;;
48122;SDS011;33907;47.426;18.906;2024-03-08T02:51:02;64.97;;;43.92;;
48122;SDS011;33907;47.426;18.906;2024-03-08T02:53:30;69.32;;;46.40;;
48122;SDS011;33907;47.426;18.906;2024-03-08T02:55:58;64.90;;;44.65;;
48122;SDS011;33907;47.426;18.906;2024-03-08T02:58:26;69.05;;;46.55;;
48122;SDS011;33907;47.426;18.906;2024-03-08T03:00:54;62.22;;;45.38;;
48122;SDS011;33907;47.426;18.906;2024-03-08T03:03:22;67.45;;;45.47;;
48122;SDS011;33907;47.426;18.906;2024-03-08T03:05:49;71.60;;;48.00;;
48122;SDS011;33907;47.426;18.906;2024-03-08T03:08:17;77.90;;;48.97;;
48122;SDS011;33907;47.426;18.906;2024-03-08T03:10:45;71.68;;;47.13;;
48122;SDS011;33907;47.426;18.906;2024-03-08T03:13:13;73.22;;;48.30;;
48122;SDS011;33907;47.426;18.906;2024-03-08T03:15:41;72.15;;;48.47;;
48122;SDS011;33907;47.426;18.906;2024-03-08T03:18:09;72.05;;;46.35;;
48122;SDS011;33907;47.426;18.906;2024-03-08T03:20:37;74.07;;;49.25;;
48122;SDS011;33907;47.426;18.906;2024-03-08T03:23:08;76.80;;;50.55;;
48122;SDS011;33907;47.426;18.906;2024-03-08T03:25:36;74.40;;;48.47;;
48122;SDS011;33907;47.426;18.906;2024-03-08T03:28:06;81.50;;;49.55;;
48122;SDS011;33907;47.426;18.906;2024-03-08T03:30:35;74.28;;;50.10;;
48122;SDS011;33907;47.426;18.906;2024-03-08T03:33:02;78.97;;;50.90;;
48122;SDS011;33907;47.426;18.906;2024-03-08T03:35:40;75.15;;;48.67;;
48122;SDS011;33907;47.426;18.906;2024-03-08T03:38:09;78.62;;;50.15;;
48122;SDS011;33907;47.426;18.906;2024-03-08T03:40:38;79.82;;;51.35;;
48122;SDS011;33907;47.426;18.906;2024-03-08T03:43:07;78.10;;;50.80;;
48122;SDS011;33907;47.426;18.906;2024-03-08T03:45:38;83.60;;;50.45;;
48122;SDS011;33907;47.426;18.906;2024-03-08T03:48:06;80.57;;;50.17;;
48122;SDS011;33907;47.426;18.906;2024-03-08T03:50:37;76.82;;;49.03;;
48122;SDS011;33907;47.426;18.906;2024-03-08T03:53:06;77.30;;;49.38;;
48122;SDS011;33907;47.426;18.906;2024-03-08T03:55:37;81.05;;;51.37;;
48122;SDS011;33907;47.426;18.906;2024-03-08T03:58:08;82.45;;;52.83;;
48122;SDS011;33907;47.426;18.906;2024-03-08T04:00:38;83.57;;;49.55;;
48122;SDS011;33907;47.426;18.906;2024-03-08T04:03:06;78.78;;;52.45;;
48122;SDS011;33907;47.426;18.906;2024-03-08T04:05:34;78.25;;;51.15;;
48122;SDS011;33907;47.426;18.906;2024-03-08T04:08:02;77.72;;;49.47;;
48122;SDS011;33907;47.426;18.906;2024-03-08T04:10:30;76.93;;;49.80;;
48122;SDS011;33907;47.426;18.906;2024-03-08T04:12:58;74.45;;;50.50;;
48122;SDS011;33907;47.426;18.906;2024-03-08T04:15:25;75.78;;;47.80;;
48122;SDS011;33907;47.426;18.906;2024-03-08T04:17:53;75.80;;;48.28;;
48122;SDS011;33907;47.426;18.906;2024-03-08T04:20:21;69.07;;;47.03;;
48122;SDS011;33907;47.426;18.906;2024-03-08T04:22:49;72.30;;;49.20;;
48122;SDS011;33907;47.426;18.906;2024-03-08T04:25:17;75.97;;;49.67;;
48122;SDS011;33907;47.426;18.906;2024-03-08T04:27:45;78.72;;;51.58;;
48122;SDS011;33907;47.426;18.906;2024-03-08T04:30:14;73.93;;;47.65;;
48122;SDS011;33907;47.426;18.906;2024-03-08T04:32:41;69.43;;;48.65;;
48122;SDS011;33907;47.426;18.906;2024-03-08T04:35:10;79.37;;;50.80;;
48122;SDS011;33907;47.426;18.906;2024-03-08T04:37:39;77.07;;;50.50;;
48122;SDS011;33907;47.426;18.906;2024-03-08T04:40:07;80.93;;;50.65;;
48122;SDS011;33907;47.426;18.906;2024-03-08T04:42:35;73.95;;;51.33;;
48122;SDS011;33907;47.426;18.906;2024-03-08T04:45:05;81.30;;;50.22;;
48122;SDS011;33907;47.426;18.906;2024-03-08T04:47:34;77.37;;;49.53;;
48122;SDS011;33907;47.426;18.906;2024-03-08T04:50:04;74.57;;;50.20;;
48122;SDS011;33907;47.426;18.906;2024-03-08T04:52:32;79.22;;;49.72;;
48122;SDS011;33907;47.426;18.906;2024-03-08T04:55:00;73.15;;;48.13;;
48122;SDS011;33907;47.426;18.906;2024-03-08T04:57:27;73.57;;;49.42;;
48122;SDS011;33907;47.426;18.906;2024-03-08T04:59:55;73.68;;;50.88;;
48122;SDS011;33907;47.426;18.906;2024-03-08T05:02:22;77.00;;;51.42;;
48122;SDS011;33907;47.426;18.906;2024-03-08T05:04:51;76.40;;;50.03;;
48122;SDS011;33907;47.426;18.906;2024-03-08T05:07:18;77.60;;;50.00;;
48122;SDS011;33907;47.426;18.906;2024-03-08T05:09:46;76.78;;;49.20;;
48122;SDS011;33907;47.426;18.906;2024-03-08T05:12:19;74.57;;;48.08;;
48122;SDS011;33907;47.426;18.906;2024-03-08T05:14:47;81.93;;;50.42;;
48122;SDS011;33907;47.426;18.906;2024-03-08T05:17:17;79.35;;;52.80;;
48122;SDS011;33907;47.426;18.906;2024-03-08T05:19:45;74.70;;;48.65;;
48122;SDS011;33907;47.426;18.906;2024-03-08T05:22:12;75.22;;;51.10;;
48122;SDS011;33907;47.426;18.906;2024-03-08T05:24:40;78.95;;;49.22;;
48122;SDS011;33907;47.426;18.906;2024-03-08T05:27:08;79.75;;;54.50;;
48122;SDS011;33907;47.426;18.906;2024-03-08T05:29:36;74.72;;;50.70;;
48122;SDS011;33907;47.426;18.906;2024-03-08T05:32:03;83.10;;;53.35;;
48122;SDS011;33907;47.426;18.906;2024-03-08T05:34:31;76.05;;;50.10;;
48122;SDS011;33907;47.426;18.906;2024-03-08T05:36:59;82.68;;;52.50;;
48122;SDS011;33907;47.426;18.906;2024-03-08T05:39:27;81.82;;;50.65;;
48122;SDS011;33907;47.426;18.906;2024-03-08T05:41:54;80.15;;;52.15;;
48122;SDS011;33907;47.426;18.906;2024-03-08T05:44:23;79.30;;;50.45;;
48122;SDS011;33907;47.426;18.906;2024-03-08T05:46:50;81.00;;;51.25;;
48122;SDS011;33907;47.426;18.906;2024-03-08T05:49:19;86.15;;;50.92;;
48122;SDS011;33907;47.426;18.906;2024-03-08T05:51:48;83.05;;;50.85;;
48122;SDS011;33907;47.426;18.906;2024-03-08T05:54:16;79.97;;;51.65;;
48122;SDS011;33907;47.426;18.906;2024-03-08T05:56:47;81.25;;;53.42;;
48122;SDS011;33907;47.426;18.906;2024-03-08T05:59:16;84.15;;;53.83;;
48122;SDS011;33907;47.426;18.906;2024-03-08T06:01:45;82.88;;;53.45;;
48122;SDS011;33907;47.426;18.906;2024-03-08T06:04:14;83.68;;;51.53;;
48122;SDS011;33907;47.426;18.906;2024-03-08T06:06:41;80.93;;;53.22;;
48122;SDS011;33907;47.426;18.906;2024-03-08T06:09:09;83.45;;;52.40;;
48122;SDS011;33907;47.426;18.906;2024-03-08T06:11:40;90.68;;;53.33;;
48122;SDS011;33907;47.426;18.906;2024-03-08T06:14:10;82.05;;;52.35;;
48122;SDS011;33907;47.426;18.906;2024-03-08T06:16:37;78.40;;;53.03;;
48122;SDS011;33907;47.426;18.906;2024-03-08T06:19:08;82.53;;;52.08;;
48122;SDS011;33907;47.426;18.906;2024-03-08T06:21:35;89.18;;;53.03;;
48122;SDS011;33907;47.426;18.906;2024-03-08T06:24:03;82.70;;;52.55;;
48122;SDS011;33907;47.426;18.906;2024-03-08T06:26:31;87.30;;;52.78;;
48122;SDS011;33907;47.426;18.906;2024-03-08T06:29:02;78.87;;;51.88;;
48122;SDS011;33907;47.426;18.906;2024-03-08T06:31:29;84.32;;;52.25;;
48122;SDS011;33907;47.426;18.906;2024-03-08T06:33:57;86.87;;;53.28;;
48122;SDS011;33907;47.426;18.906;2024-03-08T06:36:25;84.13;;;53.08;;
48122;SDS011;33907;47.426;18.906;2024-03-08T06:38:52;86.47;;;53.20;;
48122;SDS011;33907;47.426;18.906;2024-03-08T06:41:21;83.72;;;51.22;;
48122;SDS011;33907;47.426;18.906;2024-03-08T06:43:48;86.35;;;52.67;;
48122;SDS011;33907;47.426;18.906;2024-03-08T06:46:19;89.25;;;54.63;;
48122;SDS011;33907;47.426;18.906;2024-03-08T06:48:49;84.93;;;54.67;;
48122;SDS011;33907;47.426;18.906;2024-03-08T06:51:17;86.90;;;54.58;;
48122;SDS011;33907;47.426;18.906;2024-03-08T06:53:45;84.85;;;52.58;;
48122;SDS011;33907;47.426;18.906;2024-03-08T06:56:13;92.43;;;54.25;;
48122;SDS011;33907;47.426;18.906;2024-03-08T06:58:42;78.82;;;52.50;;
48122;SDS011;33907;47.426;18.906;2024-03-08T07:01:09;79.00;;;52.28;;
48122;SDS011;33907;47.426;18.906;2024-03-08T07:03:42;87.75;;;53.17;;
48122;SDS011;33907;47.426;18.906;2024-03-08T07:06:14;87.35;;;53.97;;
48122;SDS011;33907;47.426;18.906;2024-03-08T07:08:42;81.40;;;53.15;;
48122;SDS011;33907;47.426;18.906;2024-03-08T07:11:10;84.07;;;52.97;;
48122;SDS011;33907;47.426;18.906;2024-03-08T07:13:37;76.45;;;50.47;;
48122;SDS011;33907;47.426;18.906;2024-03-08T07:16:06;82.93;;;52.38;;
48122;SDS011;33907;47.426;18.906;2024-03-08T07:18:35;78.15;;;52.42;;
48122;SDS011;33907;47.426;18.906;2024-03-08T07:21:07;80.32;;;51.17;;
48122;SDS011;33907;47.426;18.906;2024-03-08T07:23:34;84.78;;;53.03;;
48122;SDS011;33907;47.426;18.906;2024-03-08T07:26:21;82.35;;;54.58;;
48122;SDS011;33907;47.426;18.906;2024-03-08T07:28:50;86.97;;;54.50;;
48122;SDS011;33907;47.426;18.906;2024-03-08T07:31:17;78.32;;;52.42;;
48122;SDS011;33907;47.426;18.906;2024-03-08T07:36:35;87.62;;;54.63;;
48122;SDS011;33907;47.426;18.906;2024-03-08T07:39:05;93.50;;;54.08;;
48122;SDS011;33907;47.426;18.906;2024-03-08T07:41:38;90.70;;;55.88;;
48122;SDS011;33907;47.426;18.906;2024-03-08T07:44:09;91.20;;;54.60;;
48122;SDS011;33907;47.426;18.906;2024-03-08T07:46:37;89.20;;;56.03;;
48122;SDS011;33907;47.426;18.906;2024-03-08T07:49:05;89.40;;;55.70;;
48122;SDS011;33907;47.426;18.906;2024-03-08T07:51:33;79.70;;;52.97;;
48122;SDS011;33907;47.426;18.906;2024-03-08T07:54:02;92.30;;;55.60;;
48122;SDS011;33907;47.426;18.906;2024-03-08T07:56:31;92.07;;;57.53;;
48122;SDS011;33907;47.426;18.906;2024-03-08T07:58:59;86.93;;;55.20;;
48122;SDS011;33907;47.426;18.906;2024-03-08T08:01:27;89.43;;;55.42;;
48122;SDS011;33907;47.426;18.906;2024-03-08T08:03:55;86.68;;;55.47;;
48122;SDS011;33907;47.426;18.906;2024-03-08T08:06:23;90.32;;;54.25;;
48122;SDS011;33907;47.426;18.906;2024-03-08T08:08:51;85.55;;;54.03;;
48122;SDS011;33907;47.426;18.906;2024-03-08T08:11:19;91.50;;;56.58;;
48122;SDS011;33907;47.426;18.906;2024-03-08T08:13:47;91.68;;;54.40;;
48122;SDS011;33907;47.426;18.906;2024-03-08T08:16:15;86.72;;;54.17;;
48122;SDS011;33907;47.426;18.906;2024-03-08T08:18:42;87.50;;;54.53;;
48122;SDS011;33907;47.426;18.906;2024-03-08T08:21:12;89.55;;;53.83;;
48122;SDS011;33907;47.426;18.906;2024-03-08T08:23:39;90.38;;;55.00;;
48122;SDS011;33907;47.426;18.906;2024-03-08T08:26:07;94.78;;;56.55;;
48122;SDS011;33907;47.426;18.906;2024-03-08T08:28:34;94.35;;;57.15;;
48122;SDS011;33907;47.426;18.906;2024-03-08T08:31:02;95.35;;;56.13;;
48122;SDS011;33907;47.426;18.906;2024-03-08T08:33:34;95.90;;;56.72;;
48122;SDS011;33907;47.426;18.906;2024-03-08T08:36:02;89.47;;;56.08;;
48122;SDS011;33907;47.426;18.906;2024-03-08T08:38:30;94.93;;;55.03;;
48122;SDS011;33907;47.426;18.906;2024-03-08T08:40:58;93.40;;;55.58;;
48122;SDS011;33907;47.426;18.906;2024-03-08T08:43:26;98.10;;;57.38;;
48122;SDS011;33907;47.426;18.906;2024-03-08T08:45:53;98.10;;;55.17;;
48122;SDS011;33907;47.426;18.906;2024-03-08T08:48:22;98.07;;;56.67;;
48122;SDS011;33907;47.426;18.906;2024-03-08T08:50:51;92.03;;;56.47;;
48122;SDS011;33907;47.426;18.906;2024-03-08T08:53:19;106.65;;;58.45;;
48122;SDS011;33907;47.426;18.906;2024-03-08T08:55:47;100.47;;;56.45;;
48122;SDS011;33907;47.426;18.906;2024-03-08T08:58:14;100.75;;;59.67;;
48122;SDS011;33907;47.426;18.906;2024-03-08T09:00:42;104.43;;;60.67;;
48122;SDS011;33907;47.426;18.906;2024-03-08T09:03:11;99.65;;;58.28;;
48122;SDS011;33907;47.426;18.906;2024-03-08T09:05:39;99.85;;;58.60;;
48122;SDS011;33907;47.426;18.906;2024-03-08T09:08:12;117.30;;;60.10;;
48122;SDS011;33907;47.426;18.906;2024-03-08T09:10:40;105.70;;;58.60;;
48122;SDS011;33907;47.426;18.906;2024-03-08T09:13:08;101.35;;;58.85;;
48122;SDS011;33907;47.426;18.906;2024-03-08T09:15:44;101.45;;;59.53;;
48122;SDS011;33907;47.426;18.906;2024-03-08T09:18:12;101.30;;;56.97;;
48122;SDS011;33907;47.426;18.906;2024-03-08T09:20:40;100.50;;;57.50;;
48122;SDS011;33907;47.426;18.906;2024-03-08T09:23:08;94.07;;;55.47;;
48122;SDS011;33907;47.426;18.906;2024-03-08T09:25:37;94.22;;;55.85;;
48122;SDS011;33907;47.426;18.906;2024-03-08T09:28:04;94.43;;;56.53;;
48122;SDS011;33907;47.426;18.906;2024-03-08T09:30:33;97.18;;;56.70;;
48122;SDS011;33907;47.426;18.906;2024-03-08T09:33:02;104.05;;;58.33;;
48122;SDS011;33907;47.426;18.906;2024-03-08T09:35:29;98.68;;;57.53;;
48122;SDS011;33907;47.426;18.906;2024-03-08T09:37:57;106.05;;;58.90;;
48122;SDS011;33907;47.426;18.906;2024-03-08T09:40:25;98.97;;;56.37;;
48122;SDS011;33907;47.426;18.906;2024-03-08T09:42:53;100.30;;;58.15;;
48122;SDS011;33907;47.426;18.906;2024-03-08T09:45:22;106.95;;;60.08;;
48122;SDS011;33907;47.426;18.906;2024-03-08T09:47:51;94.20;;;55.45;;
48122;SDS011;33907;47.426;18.906;2024-03-08T09:50:18;94.60;;;59.63;;
48122;SDS011;33907;47.426;18.906;2024-03-08T09:52:47;94.45;;;56.85;;
48122;SDS011;33907;47.426;18.906;2024-03-08T09:55:15;100.10;;;59.03;;
48122;SDS011;33907;47.426;18.906;2024-03-08T09:57:44;103.10;;;58.67;;
48122;SDS011;33907;47.426;18.906;2024-03-08T10:00:33;99.20;;;58.38;;
48122;SDS011;33907;47.426;18.906;2024-03-08T10:03:01;96.15;;;56.63;;
48122;SDS011;33907;47.426;18.906;2024-03-08T10:05:30;98.72;;;57.67;;
48122;SDS011;33907;47.426;18.906;2024-03-08T10:07:59;95.82;;;58.00;;
48122;SDS011;33907;47.426;18.906;2024-03-08T10:10:27;94.68;;;56.42;;
48122;SDS011;33907;47.426;18.906;2024-03-08T10:12:55;101.97;;;56.00;;
48122;SDS011;33907;47.426;18.906;2024-03-08T10:15:22;91.60;;;57.80;;
48122;SDS011;33907;47.426;18.906;2024-03-08T10:17:51;94.57;;;57.35;;
48122;SDS011;33907;47.426;18.906;2024-03-08T10:20:20;98.20;;;58.80;;
48122;SDS011;33907;47.426;18.906;2024-03-08T10:22:48;92.53;;;57.25;;
48122;SDS011;33907;47.426;18.906;2024-03-08T10:25:33;96.00;;;56.75;;
48122;SDS011;33907;47.426;18.906;2024-03-08T10:28:03;113.82;;;62.83;;
48122;SDS011;33907;47.426;18.906;2024-03-08T10:30:31;105.82;;;59.47;;
48122;SDS011;33907;47.426;18.906;2024-03-08T10:33:00;137.30;;;79.18;;
48122;SDS011;33907;47.426;18.906;2024-03-08T10:35:28;102.62;;;61.00;;
48122;SDS011;33907;47.426;18.906;2024-03-08T10:37:56;95.18;;;57.67;;
48122;SDS011;33907;47.426;18.906;2024-03-08T10:40:27;100.05;;;58.17;;
48122;SDS011;33907;47.426;18.906;2024-03-08T10:42:56;88.57;;;53.95;;
48122;SDS011;33907;47.426;18.906;2024-03-08T10:51:05;93.25;;;55.90;;
48122;SDS011;33907;47.426;18.906;2024-03-08T10:53:35;78.40;;;51.47;;
48122;SDS011;33907;47.426;18.906;2024-03-08T10:56:04;82.68;;;53.13;;
48122;SDS011;33907;47.426;18.906;2024-03-08T10:58:32;88.47;;;54.25;;
48122;SDS011;33907;47.426;18.906;2024-03-08T11:01:02;77.55;;;51.03;;
48122;SDS011;33907;47.426;18.906;2024-03-08T11:06:21;85.57;;;53.15;;
48122;SDS011;33907;47.426;18.906;2024-03-08T11:08:50;82.43;;;54.65;;
48122;SDS011;33907;47.426;18.906;2024-03-08T11:11:25;75.00;;;50.92;;
48122;SDS011;33907;47.426;18.906;2024-03-08T11:14:01;71.85;;;49.20;;
48122;SDS011;33907;47.426;18.906;2024-03-08T11:19:01;75.12;;;51.63;;
48122;SDS011;33907;47.426;18.906;2024-03-08T11:21:33;77.95;;;52.35;;
48122;SDS011;33907;47.426;18.906;2024-03-08T11:24:06;79.32;;;50.58;;
48122;SDS011;33907;47.426;18.906;2024-03-08T11:26:35;78.57;;;51.15;;
48122;SDS011;33907;47.426;18.906;2024-03-08T11:34:46;76.00;;;49.78;;
48122;SDS011;33907;47.426;18.906;2024-03-08T11:37:17;69.85;;;46.42;;
48122;SDS011;33907;47.426;18.906;2024-03-08T11:39:51;71.03;;;48.92;;
48122;SDS011;33907;47.426;18.906;2024-03-08T11:42:20;64.97;;;46.37;;
48122;SDS011;33907;47.426;18.906;2024-03-08T11:44:48;72.90;;;49.85;;
48122;SDS011;33907;47.426;18.906;2024-03-08T11:47:18;71.32;;;48.47;;
48122;SDS011;33907;47.426;18.906;2024-03-08T11:49:46;65.07;;;45.05;;
48122;SDS011;33907;47.426;18.906;2024-03-08T11:52:16;59.85;;;44.58;;
48122;SDS011;33907;47.426;18.906;2024-03-08T11:54:48;56.95;;;41.22;;
48122;SDS011;33907;47.426;18.906;2024-03-08T11:57:22;60.30;;;43.03;;
48122;SDS011;33907;47.426;18.906;2024-03-08T11:59:51;62.10;;;42.67;;
48122;SDS011;33907;47.426;18.906;2024-03-08T12:02:24;62.53;;;45.35;;
48122;SDS011;33907;47.426;18.906;2024-03-08T12:04:56;63.35;;;50.03;;
48122;SDS011;33907;47.426;18.906;2024-03-08T12:07:25;53.53;;;39.25;;
48122;SDS011;33907;47.426;18.906;2024-03-08T12:12:47;48.90;;;38.47;;
48122;SDS011;33907;47.426;18.906;2024-03-08T12:15:27;47.55;;;36.13;;
48122;SDS011;33907;47.426;18.906;2024-03-08T12:17:55;38.90;;;30.62;;
48122;SDS011;33907;47.426;18.906;2024-03-08T12:20:24;39.05;;;32.33;;
48122;SDS011;33907;47.426;18.906;2024-03-08T12:22:53;42.33;;;33.38;;
48122;SDS011;33907;47.426;18.906;2024-03-08T12:25:27;50.92;;;37.70;;
48122;SDS011;33907;47.426;18.906;2024-03-08T12:28:06;53.58;;;40.35;;
48122;SDS011;33907;47.426;18.906;2024-03-08T12:30:44;41.83;;;32.55;;
48122;SDS011;33907;47.426;18.906;2024-03-08T12:33:18;39.90;;;31.52;;
48122;SDS011;33907;47.426;18.906;2024-03-08T12:35:52;40.83;;;33.38;;
48122;SDS011;33907;47.426;18.906;2024-03-08T12:38:28;42.10;;;34.17;;
48122;SDS011;33907;47.426;18.906;2024-03-08T12:40:57;41.47;;;34.20;;
48122;SDS011;33907;47.426;18.906;2024-03-08T12:43:26;42.75;;;34.05;;
48122;SDS011;33907;47.426;18.906;2024-03-08T12:45:55;40.78;;;32.28;;
48122;SDS011;33907;47.426;18.906;2024-03-08T12:48:23;40.80;;;32.72;;
48122;SDS011;33907;47.426;18.906;2024-03-08T12:50:50;42.40;;;34.70;;
48122;SDS011;33907;47.426;18.906;2024-03-08T12:53:19;39.25;;;32.22;;
48122;SDS011;33907;47.426;18.906;2024-03-08T12:55:47;41.53;;;34.20;;
48122;SDS011;33907;47.426;18.906;2024-03-08T12:58:14;41.53;;;33.38;;
48122;SDS011;33907;47.426;18.906;2024-03-08T13:00:44;42.38;;;34.45;;
48122;SDS011;33907;47.426;18.906;2024-03-08T13:03:11;44.03;;;32.35;;
48122;SDS011;33907;47.426;18.906;2024-03-08T13:05:39;37.50;;;30.10;;
48122;SDS011;33907;47.426;18.906;2024-03-08T13:08:07;38.17;;;30.55;;
48122;SDS011;33907;47.426;18.906;2024-03-08T13:10:43;36.00;;;29.92;;
48122;SDS011;33907;47.426;18.906;2024-03-08T13:13:11;35.75;;;29.12;;
48122;SDS011;33907;47.426;18.906;2024-03-08T13:15:40;35.85;;;31.23;;
48122;SDS011;33907;47.426;18.906;2024-03-08T13:18:08;42.17;;;34.28;;
48122;SDS011;33907;47.426;18.906;2024-03-08T13:20:36;38.40;;;33.20;;
48122;SDS011;33907;47.426;18.906;2024-03-08T13:23:13;36.03;;;30.88;;
48122;SDS011;33907;47.426;18.906;2024-03-08T13:25:41;35.50;;;29.80;;
48122;SDS011;33907;47.426;18.906;2024-03-08T13:28:09;39.72;;;32.53;;
48122;SDS011;33907;47.426;18.906;2024-03-08T13:30:38;38.53;;;32.58;;
48122;SDS011;33907;47.426;18.906;2024-03-08T13:33:06;33.95;;;28.10;;
48122;SDS011;33907;47.426;18.906;2024-03-08T13:35:34;28.08;;;25.08;;
48122;SDS011;33907;47.426;18.906;2024-03-08T13:38:02;27.73;;;24.70;;
48122;SDS011;33907;47.426;18.906;2024-03-08T13:40:32;31.33;;;28.00;;
48122;SDS011;33907;47.426;18.906;2024-03-08T13:43:01;29.52;;;26.40;;
48122;SDS011;33907;47.426;18.906;2024-03-08T13:45:29;41.90;;;33.90;;
48122;SDS011;33907;47.426;18.906;2024-03-08T13:47:56;36.17;;;30.45;;
48122;SDS011;33907;47.426;18.906;2024-03-08T13:50:24;29.10;;;25.95;;
48122;SDS011;33907;47.426;18.906;2024-03-08T13:52:53;27.52;;;24.58;;
48122;SDS011;33907;47.426;18.906;2024-03-08T13:55:23;30.05;;;25.10;;
48122;SDS011;33907;47.426;18.906;2024-03-08T13:57:54;23.20;;;20.70;;
48122;SDS011;33907;47.426;18.906;2024-03-08T14:00:21;28.62;;;25.02;;
48122;SDS011;33907;47.426;18.906;2024-03-08T14:02:52;27.73;;;24.30;;
48122;SDS011;33907;47.426;18.906;2024-03-08T14:05:21;28.48;;;25.42;;
48122;SDS011;33907;47.426;18.906;2024-03-08T14:07:49;29.92;;;23.80;;
48122;SDS011;33907;47.426;18.906;2024-03-08T14:10:17;27.83;;;24.23;;
48122;SDS011;33907;47.426;18.906;2024-03-08T14:12:50;26.95;;;22.50;;
48122;SDS011;33907;47.426;18.906;2024-03-08T14:15:18;27.80;;;22.95;;
48122;SDS011;33907;47.426;18.906;2024-03-08T14:17:53;27.37;;;23.55;;
48122;SDS011;33907;47.426;18.906;2024-03-08T14:20:22;28.00;;;22.80;;
48122;SDS011;33907;47.426;18.906;2024-03-08T14:22:53;27.75;;;23.83;;
48122;SDS011;33907;47.426;18.906;2024-03-08T14:25:24;26.40;;;22.90;;
48122;SDS011;33907;47.426;18.906;2024-03-08T14:27:52;26.87;;;22.55;;
48122;SDS011;33907;47.426;18.906;2024-03-08T14:30:21;26.83;;;22.45;;
48122;SDS011;33907;47.426;18.906;2024-03-08T14:33:06;31.10;;;24.75;;
48122;SDS011;33907;47.426;18.906;2024-03-08T14:35:37;27.02;;;21.30;;
48122;SDS011;33907;47.426;18.906;2024-03-08T14:38:06;29.12;;;23.55;;
48122;SDS011;33907;47.426;18.906;2024-03-08T14:40:37;28.50;;;24.58;;